Time,TemperatureF,DewpointF,PressureIn,WindDirection,WindDirectionDegrees,WindSpeedMPH,WindSpeedGustMPH,Humidity,HourlyPrecipIn,Conditions,Clouds,dailyrainin,SoftwareType,DateUTC
2013-08-16 00:00:00,51.0,40.0,30.76,SW,236,3.0,6.0,66,0.00,,,0.00,,2013-08-16 07:00:00,
2013-08-16 00:21:00,51.0,40.0,30.75,West,279,1.0,4.0,67,0.00,,,0.00,,2013-08-16 07:21:00,
2013-08-16 01:21:00,51.0,41.0,30.74,WSW,239,2.0,5.0,69,0.00,,,0.00,,2013-08-16 08:21:00,
2013-08-16 02:21:00,51.0,42.0,30.73,West,263,2.0,6.0,70,0.00,,,0.00,,2013-08-16 09:21:00,
2013-08-16 03:23:00,50.0,41.0,30.73,NW,311,2.0,7.0,71,0.00,,,0.00,,2013-08-16 10:23:00,
2013-08-16 04:21:00,50.0,41.0,30.73,NNW,340,5.0,10.0,72,0.00,,,0.00,,2013-08-16 11:21:00,
2013-08-16 05:12:00,50.0,42.0,30.73,NNW,346,8.0,10.0,73,0.00,,,0.00,,2013-08-16 12:12:00,
2013-08-16 05:21:00,49.0,41.0,30.74,NNW,346,6.0,9.0,74,0.00,,,0.00,,2013-08-16 12:21:00,
2013-08-16 09:23:00,55.0,40.0,30.78,NNW,330,1.0,6.0,57,0.00,,,0.00,,2013-08-16 16:23:00,
2013-08-16 09:57:00,55.0,39.0,30.78,WNW,286,2.0,5.0,54,0.00,,,0.00,,2013-08-16 16:57:00,
2013-08-16 10:28:00,55.0,39.0,30.79,WNW,299,3.0,7.0,55,0.00,,,0.00,,2013-08-16 17:28:00,
2013-08-16 11:00:00,57.0,41.0,30.80,SSW,199,2.0,7.0,54,0.00,,,0.00,,2013-08-16 18:00:00,
2013-08-16 11:27:00,58.0,41.0,30.80,West,271,2.0,7.0,53,0.00,,,0.00,,2013-08-16 18:27:00,
2013-08-16 11:50:00,-999.0,-99.9,30.79,SSW,198,3.0,9.0,54,0.00,,,0.00,,2013-08-16 18:50:00,
2013-08-16 12:25:00,57.0,40.0,30.79,SSW,192,1.0,6.0,53,0.00,,,0.00,,2013-08-16 19:25:00,
2013-08-16 12:55:00,55.0,39.0,30.79,SSW,198,3.0,12.0,54,0.00,,,0.00,,2013-08-16 19:55:00,
2013-08-16 13:23:00,57.0,37.0,30.78,South,189,2.0,7.0,47,0.00,,,0.00,,2013-08-16 20:23:00,
2013-08-16 13:52:00,60.0,41.0,30.77,West,272,4.0,8.0,49,0.00,,,0.00,,2013-08-16 20:52:00,
2013-08-16 14:25:00,58.0,42.0,30.78,WNW,293,6.0,10.0,55,0.00,,,0.00,,2013-08-16 21:25:00,
2013-08-16 14:40:00,-999.0,-99.9,30.77,NW,305,6.0,9.0,-999,0.00,,,0.00,,2013-08-16 21:40:00,
2013-08-16 14:53:00,58.0,37.0,30.77,NW,318,2.0,6.0,46,0.00,,,0.00,,2013-08-16 21:53:00,
2013-08-16 15:24:00,59.0,42.0,30.76,WNW,299,2.0,7.0,53,0.00,,,0.00,,2013-08-16 22:24:00,
2013-08-16 15:52:00,60.0,43.0,30.75,SSW,197,3.0,8.0,54,0.00,,,0.00,,2013-08-16 22:52:00,
2013-08-16 16:23:00,61.0,41.0,30.75,WSW,244,6.0,17.0,47,0.00,,,0.00,,2013-08-16 23:23:00,
2013-08-16 16:52:00,56.0,44.0,30.75,South,171,5.0,10.0,63,0.00,,,0.00,,2013-08-16 23:52:00,
2013-08-16 17:21:00,55.0,44.0,30.76,WNW,291,3.0,7.0,67,0.00,,,0.00,,2013-08-17 00:21:00,
2013-08-16 17:52:00,53.0,44.0,30.76,NNE,21,1.0,7.0,71,0.00,,,0.00,,2013-08-17 00:52:00,
2013-08-16 18:21:00,57.0,45.0,30.75,WSW,241,1.0,5.0,63,0.00,,,0.00,,2013-08-17 01:21:00,
2013-08-16 18:52:00,56.0,43.0,30.74,SSW,192,3.0,9.0,61,0.00,,,0.00,,2013-08-17 01:52:00,
2013-08-16 19:21:00,54.0,42.0,30.75,South,190,2.0,5.0,63,0.00,,,0.00,,2013-08-17 02:21:00,
2013-08-16 19:52:00,53.0,42.0,30.76,NW,317,3.0,6.0,66,0.00,,,0.00,,2013-08-17 02:52:00,
2013-08-16 20:21:00,53.0,42.0,30.76,WNW,293,2.0,5.0,65,0.00,,,0.00,,2013-08-17 03:21:00,
2013-08-16 20:53:00,54.0,41.0,30.77,WNW,287,2.0,4.0,62,0.00,,,0.00,,2013-08-17 03:53:00,
2013-08-16 21:23:00,54.0,39.0,30.78,WSW,250,1.0,3.0,57,0.00,,,0.00,,2013-08-17 04:23:00,
2013-08-16 21:53:00,54.0,39.0,30.79,West,264,2.0,4.0,57,0.00,,,0.00,,2013-08-17 04:53:00,
2013-08-16 22:52:00,53.0,41.0,30.79,NNE,18,4.0,7.0,64,0.00,,,0.00,,2013-08-17 05:52:00,
2013-08-16 23:52:00,52.0,39.0,30.79,South,171,4.0,7.0,61,0.02,,,0.02,,2013-08-17 06:52:00,